Time;durP1;ratioP1;P1;durP2;ratioP2;P2;SDS_P1;SDS_P2;PMS_P1;PMS_P2;Temp;Humidity;BMP_temperature;BMP_pressure;BME280_temperature;BME280_humidity;BME280_pressure;Samples;Min_cycle;Max_cycle;Signal;HPM_P1;HPM_P2
2021/10/11 00:01:57;;;;;;;30.15;11.90;;;;;;;12.35;100.00;102668.00;5221277;28;20021;-75
2021/10/11 00:04:27;;;;;;;32.60;12.75;;;;;;;12.31;100.00;102667.44;5221921;28;20035;-75
2021/10/11 00:06:58;;;;;;;30.45;13.10;;;;;;;12.26;100.00;102666.97;5221318;28;20448;-73
2021/10/11 00:09:28;;;;;;;26.90;11.00;;;;;;;12.15;100.00;102675.13;5220173;28;20064;-75
2021/10/11 00:11:59;;;;;;;31.42;11.82;;;;;;;12.09;100.00;102668.41;5221470;28;20074;-75
2021/10/11 00:14:29;;;;;;;31.55;10.65;;;;;;;12.06;100.00;102676.78;5221515;28;20374;-75
2021/10/11 00:17:00;;;;;;;24.20;9.93;;;;;;;12.02;100.00;102678.00;5220800;28;20567;-74
2021/10/11 00:19:35;;;;;;;25.42;9.25;;;;;;;11.99;100.00;102666.66;5220068;28;20066;-74
2021/10/11 00:22:06;;;;;;;27.67;8.60;;;;;;;11.96;100.00;102670.47;5222791;28;20478;-75
2021/10/11 00:24:36;;;;;;;24.52;8.70;;;;;;;11.95;100.00;102673.28;5226285;28;20028;-74
2021/10/11 00:27:07;;;;;;;21.08;8.52;;;;;;;11.91;100.00;102683.47;5225421;28;20083;-75
2021/10/11 00:29:37;;;;;;;26.20;8.45;;;;;;;11.97;100.00;102685.63;5225355;28;20028;-73
2021/10/11 00:32:08;;;;;;;18.00;7.63;;;;;;;12.02;100.00;102691.47;5225696;28;20104;-74
2021/10/11 00:34:39;;;;;;;23.70;7.03;;;;;;;12.05;100.00;102690.34;5225959;28;20037;-72
2021/10/11 00:37:09;;;;;;;21.48;7.03;;;;;;;12.04;100.00;102691.31;5224185;28;20017;-73
2021/10/11 00:39:40;;;;;;;14.18;6.75;;;;;;;12.01;100.00;102686.22;5224783;28;20033;-75
2021/10/11 00:42:11;;;;;;;14.00;5.70;;;;;;;12.00;100.00;102688.06;5224014;28;20359;-72
2021/10/11 00:44:41;;;;;;;15.63;5.25;;;;;;;12.02;100.00;102694.16;5224092;28;20032;-73
2021/10/11 00:47:12;;;;;;;16.38;5.63;;;;;;;12.07;100.00;102686.53;5225506;28;20036;-73
2021/10/11 00:49:42;;;;;;;14.85;5.50;;;;;;;12.03;100.00;102695.00;5225032;28;20440;-73
2021/10/11 00:52:13;;;;;;;17.95;5.75;;;;;;;11.98;100.00;102691.84;5225097;28;20021;-75
2021/10/11 00:54:44;;;;;;;16.83;5.05;;;;;;;11.95;100.00;102684.91;5225180;28;20078;-74
2021/10/11 00:57:15;;;;;;;19.17;4.88;;;;;;;11.93;100.00;102685.03;5224881;28;20127;-73
2021/10/11 00:59:45;;;;;;;11.07;4.78;;;;;;;11.85;100.00;102692.91;5224525;28;20116;-73
2021/10/11 01:02:16;;;;;;;20.05;4.45;;;;;;;11.82;100.00;102690.47;5225136;28;20108;-74
2021/10/11 01:04:47;;;;;;;16.55;4.63;;;;;;;11.77;100.00;102692.66;5225832;28;20382;-74
2021/10/11 01:07:18;;;;;;;18.33;5.03;;;;;;;11.75;100.00;102680.34;5225399;28;20031;-73
2021/10/11 01:09:48;;;;;;;18.30;5.03;;;;;;;11.57;100.00;102675.50;5225160;28;20027;-74
2021/10/11 01:12:19;;;;;;;13.00;3.72;;;;;;;11.55;100.00;102673.94;5225590;28;20028;-73
2021/10/11 01:14:49;;;;;;;11.23;3.90;;;;;;;11.53;100.00;102675.88;5224789;28;20479;-74
2021/10/11 01:17:20;;;;;;;16.02;5.22;;;;;;;11.43;100.00;102681.19;5225168;28;20103;-74
2021/10/11 01:19:55;;;;;;;20.63;4.80;;;;;;;11.40;100.00;102670.69;5224701;28;20113;-74
2021/10/11 01:22:34;;;;;;;19.15;4.40;;;;;;;11.35;100.00;102671.06;5223558;28;20035;-73
2021/10/11 01:25:08;;;;;;;15.15;5.53;;;;;;;11.25;100.00;102675.50;5224769;28;20028;-74
2021/10/11 01:27:39;;;;;;;11.52;4.15;;;;;;;11.18;100.00;102674.28;5224652;28;20029;-74
2021/10/11 01:30:12;;;;;;;14.57;4.97;;;;;;;11.07;100.00;102675.16;5223526;28;20025;-72
2021/10/11 01:32:49;;;;;;;9.85;4.05;;;;;;;11.03;100.00;102673.69;5224717;28;20376;-74
2021/10/11 01:35:20;;;;;;;16.52;4.07;;;;;;;10.96;100.00;102677.88;5224424;28;20266;-72
2021/10/11 01:37:51;;;;;;;16.17;4.15;;;;;;;10.93;100.00;102672.75;5224191;28;20017;-74
2021/10/11 01:40:22;;;;;;;15.18;4.25;;;;;;;10.86;100.00;102674.22;5224218;28;20021;-73
2021/10/11 01:42:53;;;;;;;17.30;5.05;;;;;;;10.80;100.00;102685.47;5224633;28;20044;-74
2021/10/11 01:45:23;;;;;;;12.85;4.57;;;;;;;10.75;100.00;102676.94;5224301;28;20021;-74
2021/10/11 01:47:54;;;;;;;13.95;4.55;;;;;;;10.68;100.00;102678.38;5224699;28;20571;-73
2021/10/11 01:50:27;;;;;;;16.20;4.47;;;;;;;10.59;100.00;102677.28;5223874;28;20025;-74
2021/10/11 01:52:58;;;;;;;13.82;4.65;;;;;;;10.50;100.00;102681.56;5224445;28;20059;-74
2021/10/11 01:55:29;;;;;;;11.70;3.60;;;;;;;10.42;100.00;102685.81;5224530;28;20025;-73
2021/10/11 01:58:00;;;;;;;10.38;4.53;;;;;;;10.38;100.00;102682.50;5225043;28;20035;-73
2021/10/11 02:00:30;;;;;;;9.57;3.97;;;;;;;10.32;100.00;102680.31;5223883;28;20535;-72
2021/10/11 02:03:06;;;;;;;16.42;5.20;;;;;;;10.32;100.00;102693.72;5222641;28;20111;-73
2021/10/11 02:05:38;;;;;;;9.25;4.47;;;;;;;10.36;100.00;102695.19;5224337;28;20082;-73
2021/10/11 02:08:08;;;;;;;11.77;4.65;;;;;;;10.36;100.00;102685.31;5224501;28;20104;-73
2021/10/11 02:10:46;;;;;;;7.75;4.20;;;;;;;10.34;100.00;102687.28;5223780;28;20020;-73
2021/10/11 02:13:28;;;;;;;12.93;4.93;;;;;;;10.37;100.00;102694.22;5223873;28;20414;-73
2021/10/11 02:15:59;;;;;;;14.00;4.78;;;;;;;10.41;100.00;102689.47;5223992;28;20024;-74
2021/10/11 02:18:30;;;;;;;12.05;5.15;;;;;;;10.41;100.00;102697.53;5224003;28;20032;-73
2021/10/11 02:21:01;;;;;;;18.35;5.13;;;;;;;10.38;100.00;102679.81;5223504;28;20032;-74
2021/10/11 02:23:32;;;;;;;13.80;4.75;;;;;;;10.35;100.00;102680.94;5223581;28;20025;-75
2021/10/11 02:26:03;;;;;;;13.10;4.57;;;;;;;10.34;100.00;102692.66;5222256;28;20025;-74
2021/10/11 02:28:33;;;;;;;14.90;4.82;;;;;;;10.29;100.00;102681.41;5223940;28;20378;-73
2021/10/11 02:31:03;;;;;;;12.65;4.82;;;;;;;10.23;100.00;102678.31;5223465;28;20040;-74
2021/10/11 02:33:34;;;;;;;10.50;4.47;;;;;;;10.15;100.00;102678.91;5222672;28;20032;-73
2021/10/11 02:36:04;;;;;;;16.58;4.75;;;;;;;10.12;100.00;102677.31;5223080;28;20029;-73
2021/10/11 02:38:35;;;;;;;16.25;4.50;;;;;;;10.06;100.00;102675.13;5223555;28;20029;-73
2021/10/11 02:41:06;;;;;;;17.90;5.75;;;;;;;10.01;100.00;102679.13;5223135;28;20021;-74
2021/10/11 02:43:36;;;;;;;15.73;5.43;;;;;;;9.93;100.00;102678.84;5223610;28;20102;-74
2021/10/11 02:46:07;;;;;;;10.85;4.80;;;;;;;9.80;100.00;102679.81;5222282;28;20382;-73
2021/10/11 02:48:37;;;;;;;12.82;4.32;;;;;;;9.76;100.00;102669.44;5222832;28;20037;-73
2021/10/11 02:51:08;;;;;;;16.15;5.40;;;;;;;9.74;100.00;102668.66;5222813;28;20017;-73
2021/10/11 02:53:38;;;;;;;18.73;6.40;;;;;;;9.89;100.00;102672.88;5222679;28;20056;-73
2021/10/11 02:56:09;;;;;;;16.65;5.68;;;;;;;9.92;100.00;102683.34;5222841;28;20123;-73
2021/10/11 02:58:39;;;;;;;16.23;6.25;;;;;;;10.02;100.00;102680.81;5222923;28;20017;-73
2021/10/11 03:01:10;;;;;;;12.85;5.65;;;;;;;10.09;100.00;102677.56;5222375;28;20064;-73
2021/10/11 03:03:40;;;;;;;19.40;5.90;;;;;;;10.11;100.00;102680.97;5222710;28;20044;-74
2021/10/11 03:06:11;;;;;;;20.70;6.43;;;;;;;10.13;100.00;102676.34;5222853;28;20108;-73
2021/10/11 03:08:41;;;;;;;16.38;6.53;;;;;;;10.16;100.00;102687.81;5222605;28;20021;-73
2021/10/11 03:11:11;;;;;;;19.73;6.85;;;;;;;10.16;100.00;102683.31;5222393;28;20028;-73
2021/10/11 03:13:42;;;;;;;24.20;7.00;;;;;;;10.19;100.00;102676.84;5222551;28;20455;-73
2021/10/11 03:16:12;;;;;;;18.58;6.70;;;;;;;10.16;100.00;102683.31;5222753;28;20025;-75
2021/10/11 03:18:43;;;;;;;15.07;6.68;;;;;;;10.17;100.00;102684.16;5222739;28;20104;-73
2021/10/11 03:21:21;;;;;;;25.90;7.65;;;;;;;10.10;100.00;102684.63;5222273;28;20497;-73
2021/10/11 03:23:52;;;;;;;23.85;7.45;;;;;;;10.06;100.00;102674.25;5222767;28;20033;-75
2021/10/11 03:26:22;;;;;;;18.58;7.80;;;;;;;10.00;100.00;102667.56;5221249;28;20144;-73
2021/10/11 03:28:53;;;;;;;20.15;6.63;;;;;;;9.90;100.00;102669.22;5221052;28;20025;-73
2021/10/11 03:31:23;;;;;;;22.83;7.22;;;;;;;9.78;100.00;102662.09;5222493;28;20021;-73
2021/10/11 03:33:54;;;;;;;16.27;6.00;;;;;;;9.67;100.00;102667.44;5222726;28;20108;-73
2021/10/11 03:36:24;;;;;;;28.05;7.43;;;;;;;9.54;100.00;102663.03;5222030;28;20082;-73
2021/10/11 03:38:55;;;;;;;20.02;8.43;;;;;;;9.45;100.00;102673.56;5222672;28;20095;-75
2021/10/11 03:41:25;;;;;;;23.52;7.95;;;;;;;9.38;100.00;102665.09;5222625;28;20532;-73
2021/10/11 03:43:56;;;;;;;20.95;7.57;;;;;;;9.30;100.00;102662.16;5222340;28;20028;-73
2021/10/11 03:46:26;;;;;;;17.27;7.13;;;;;;;9.22;100.00;102668.06;5222315;28;20017;-73
2021/10/11 03:48:57;;;;;;;20.23;8.27;;;;;;;9.20;100.00;102674.53;5221635;28;20375;-75
2021/10/11 03:51:27;;;;;;;20.20;8.20;;;;;;;9.16;100.00;102675.72;5222056;28;20025;-75
2021/10/11 03:53:58;;;;;;;16.38;7.53;;;;;;;9.05;100.00;102672.00;5222213;28;20032;-74
2021/10/11 03:56:28;;;;;;;19.45;8.63;;;;;;;8.95;100.00;102662.94;5221826;28;20055;-75
2021/10/11 03:58:59;;;;;;;21.25;8.90;;;;;;;8.87;100.00;102662.63;5221662;28;20521;-74
2021/10/11 04:01:29;;;;;;;20.25;8.90;;;;;;;8.84;100.00;102672.72;5221603;28;20037;-73
2021/10/11 04:04:00;;;;;;;22.63;8.93;;;;;;;8.94;100.00;102666.56;5221872;28;20025;-74
2021/10/11 04:06:30;;;;;;;27.92;9.68;;;;;;;9.02;100.00;102672.22;5221918;28;20056;-73
2021/10/11 04:09:01;;;;;;;20.98;8.98;;;;;;;8.98;100.00;102665.38;5221657;28;20401;-74
2021/10/11 04:11:32;;;;;;;22.52;8.77;;;;;;;8.96;100.00;102669.13;5222204;28;20034;-73
2021/10/11 04:14:03;;;;;;;25.67;9.57;;;;;;;8.94;100.00;102671.09;5220665;28;20028;-74
2021/10/11 04:16:33;;;;;;;22.17;9.25;;;;;;;8.92;100.00;102668.50;5221993;28;20070;-74
2021/10/11 04:19:04;;;;;;;23.85;8.90;;;;;;;8.89;100.00;102671.41;5221738;28;20102;-75
2021/10/11 04:21:34;;;;;;;23.02;8.52;;;;;;;8.88;100.00;102669.66;5221740;28;20113;-74
2021/10/11 04:24:05;;;;;;;20.02;8.23;;;;;;;8.86;100.00;102670.75;5221653;28;20529;-75
2021/10/11 04:26:35;;;;;;;25.88;9.93;;;;;;;8.88;100.00;102667.00;5221286;28;20067;-74
2021/10/11 04:29:06;;;;;;;23.48;10.73;;;;;;;8.91;100.00;102669.47;5221466;28;20032;-74
2021/10/11 04:31:37;;;;;;;22.73;10.00;;;;;;;9.03;100.00;102676.59;5220645;28;20025;-75
2021/10/11 04:34:07;;;;;;;25.10;7.75;;;;;;;9.16;100.00;102671.22;5221670;28;20083;-74
2021/10/11 04:36:38;;;;;;;24.60;8.20;;;;;;;9.36;100.00;102687.63;5221767;28;20452;-74
2021/10/11 04:39:08;;;;;;;15.80;6.53;;;;;;;9.50;100.00;102687.47;5220752;28;20444;-74
2021/10/11 04:41:39;;;;;;;17.45;6.03;;;;;;;9.57;100.00;102681.53;5221638;28;20428;-74
2021/10/11 04:44:09;;;;;;;22.85;6.75;;;;;;;9.57;100.00;102692.25;5221608;28;20104;-73
2021/10/11 04:46:40;;;;;;;17.77;6.05;;;;;;;9.61;100.00;102695.56;5221715;28;20071;-73
2021/10/11 04:49:10;;;;;;;29.52;7.93;;;;;;;9.60;100.00;102689.34;5221752;28;20033;-74
2021/10/11 04:51:40;;;;;;;22.02;4.95;;;;;;;9.72;100.00;102700.94;5221684;28;20403;-73
2021/10/11 04:54:13;;;;;;;16.35;5.05;;;;;;;9.92;100.00;102703.97;5221770;28;20025;-74
2021/10/11 04:56:44;;;;;;;17.88;6.18;;;;;;;9.91;100.00;102703.09;5221344;28;20053;-73
2021/10/11 04:59:14;;;;;;;13.60;4.72;;;;;;;9.95;100.00;102709.94;5221129;28;20037;-74
2021/10/11 05:01:45;;;;;;;16.65;5.15;;;;;;;10.02;100.00;102715.69;5221329;28;20025;-75
2021/10/11 05:04:15;;;;;;;22.92;4.72;;;;;;;10.07;100.00;102710.81;5221530;28;20032;-75
2021/10/11 05:06:46;;;;;;;12.50;4.43;;;;;;;10.10;100.00;102716.81;5221511;28;20029;-74
2021/10/11 05:09:16;;;;;;;11.85;4.00;;;;;;;10.06;100.00;102712.66;5221872;28;20062;-75
2021/10/11 05:11:47;;;;;;;16.55;3.72;;;;;;;10.02;100.00;102716.53;5223949;28;20021;-74
2021/10/11 05:14:17;;;;;;;19.02;4.05;;;;;;;9.94;100.00;102718.09;5224987;28;20037;-72
2021/10/11 05:16:48;;;;;;;15.07;7.10;;;;;;;9.77;100.00;102717.53;5224626;28;20039;-72
2021/10/11 05:19:24;;;;;;;15.68;5.97;;;;;;;9.60;100.00;102713.47;5224827;28;20063;-72
2021/10/11 05:21:55;;;;;;;16.40;8.80;;;;;;;9.44;100.00;102710.22;5224968;28;20017;-72
2021/10/11 05:24:26;;;;;;;16.58;5.50;;;;;;;9.29;100.00;102706.00;5224767;28;20029;-72
2021/10/11 05:26:56;;;;;;;18.60;5.00;;;;;;;9.13;100.00;102700.88;5223804;28;20055;-72
2021/10/11 05:29:27;;;;;;;11.55;4.13;;;;;;;8.97;100.00;102695.78;5224443;28;20029;-73
2021/10/11 05:31:58;;;;;;;12.20;4.07;;;;;;;8.82;100.00;102687.03;5224469;28;20549;-72
2021/10/11 05:34:29;;;;;;;13.32;3.88;;;;;;;8.67;100.00;102684.59;5224257;28;20028;-73
2021/10/11 05:37:00;;;;;;;15.15;4.60;;;;;;;8.53;100.00;102686.47;5224391;28;20029;-75
2021/10/11 05:39:31;;;;;;;14.30;5.35;;;;;;;8.41;100.00;102692.66;5223580;28;20067;-73
2021/10/11 05:42:01;;;;;;;17.20;5.70;;;;;;;8.34;100.00;102694.03;5224442;28;20025;-74
2021/10/11 05:44:32;;;;;;;16.30;5.18;;;;;;;8.28;100.00;102687.28;5223539;28;20375;-75
2021/10/11 05:47:04;;;;;;;10.32;4.20;;;;;;;8.19;100.00;102685.25;5224387;28;20053;-73
2021/10/11 05:49:35;;;;;;;10.88;5.70;;;;;;;8.11;100.00;102700.94;5223967;28;20390;-73
2021/10/11 05:52:05;;;;;;;14.68;5.80;;;;;;;8.04;100.00;102688.97;5223746;28;20032;-73
2021/10/11 05:54:36;;;;;;;13.68;6.00;;;;;;;7.96;100.00;102692.16;5223990;28;20082;-73
2021/10/11 05:57:06;;;;;;;20.63;7.55;;;;;;;7.94;100.00;102695.91;5223763;28;20417;-73
2021/10/11 05:59:37;;;;;;;24.20;10.25;;;;;;;7.89;100.00;102696.22;5223943;28;20066;-75
2021/10/11 06:02:07;;;;;;;29.88;9.38;;;;;;;7.87;100.00;102692.75;5223728;28;20025;-74
2021/10/11 06:04:38;;;;;;;12.20;6.32;;;;;;;7.78;100.00;102688.94;5223455;28;20033;-73
2021/10/11 06:07:08;;;;;;;15.48;6.65;;;;;;;7.70;100.00;102698.41;5224058;28;20558;-73
2021/10/11 06:09:39;;;;;;;31.00;6.90;;;;;;;7.62;100.00;102693.56;5223582;28;20033;-74
2021/10/11 06:12:09;;;;;;;16.00;5.78;;;;;;;7.56;100.00;102693.13;5222575;28;20471;-73
2021/10/11 06:14:40;;;;;;;14.07;5.85;;;;;;;7.52;100.00;102703.13;5223664;28;20068;-73
2021/10/11 06:17:10;;;;;;;13.07;6.65;;;;;;;7.50;100.00;102703.25;5238922;28;20025;-72
2021/10/11 06:19:40;;;;;;;16.83;7.15;;;;;;;7.56;100.00;102715.34;5238645;28;20374;-72
2021/10/11 06:22:11;;;;;;;16.92;7.78;;;;;;;7.63;100.00;102713.09;5223787;28;20074;-73
2021/10/11 06:24:41;;;;;;;15.77;7.05;;;;;;;7.69;100.00;102723.41;5223718;28;20043;-73
2021/10/11 06:27:12;;;;;;;16.40;6.50;;;;;;;7.78;100.00;102726.31;5223565;28;20082;-72
2021/10/11 06:29:43;;;;;;;17.30;7.47;;;;;;;7.81;100.00;102730.59;5223010;28;20024;-71
2021/10/11 06:32:13;;;;;;;13.27;6.20;;;;;;;7.81;100.00;102730.59;5223691;28;20032;-72
2021/10/11 06:34:44;;;;;;;20.55;7.15;;;;;;;7.84;100.00;102730.41;5223417;28;20029;-72
2021/10/11 06:37:14;;;;;;;18.48;7.18;;;;;;;7.85;100.00;102729.44;5223615;28;20410;-72
2021/10/11 06:39:45;;;;;;;16.02;7.22;;;;;;;7.85;100.00;102732.09;5222975;28;20029;-74
2021/10/11 06:42:15;;;;;;;24.05;12.70;;;;;;;7.90;100.00;102729.97;5222996;28;20044;-73
2021/10/11 06:44:47;;;;;;;15.32;7.88;;;;;;;7.97;100.00;102725.94;5223518;28;20028;-73
2021/10/11 06:47:17;;;;;;;20.90;7.53;;;;;;;8.08;100.00;102722.53;5214916;28;20364;-73
2021/10/11 06:49:48;;;;;;;17.60;7.05;;;;;;;8.18;100.00;102725.44;5220016;28;20035;-73
2021/10/11 06:52:18;;;;;;;15.25;6.93;;;;;;;8.34;100.00;102723.44;5220265;28;20048;-73
2021/10/11 06:54:49;;;;;;;13.88;7.00;;;;;;;8.47;100.00;102726.97;5220244;28;20101;-74
2021/10/11 06:57:19;;;;;;;14.57;6.65;;;;;;;8.56;100.00;102722.81;5220280;28;20025;-72
2021/10/11 06:59:50;;;;;;;22.08;6.28;;;;;;;8.69;100.00;102714.81;5219933;28;20115;-74
2021/10/11 07:02:21;;;;;;;17.25;7.28;;;;;;;8.82;100.00;102727.19;5220267;28;20040;-73
2021/10/11 07:04:57;;;;;;;11.95;6.75;;;;;;;8.97;100.00;102730.59;5219073;28;20060;-73
2021/10/11 07:07:52;;;;;;;20.48;8.30;;;;;;;9.10;100.00;102737.75;5220530;28;20094;-73
2021/10/11 07:10:23;;;;;;;330.23;121.80;;;;;;;9.18;100.00;102751.41;5207179;28;20584;-72
2021/10/11 07:12:53;;;;;;;34.58;14.35;;;;;;;9.19;100.00;102743.31;5220246;28;20029;-73
2021/10/11 07:15:24;;;;;;;23.17;10.60;;;;;;;9.19;100.00;102743.31;5218706;28;20039;-73
2021/10/11 07:17:54;;;;;;;22.08;7.80;;;;;;;9.20;100.00;102742.31;5220090;28;20040;-73
2021/10/11 07:20:25;;;;;;;23.92;7.25;;;;;;;9.19;100.00;102743.31;5220068;28;20086;-73
2021/10/11 07:22:56;;;;;;;22.40;7.93;;;;;;;9.22;100.00;102750.25;5220147;28;20096;-72
2021/10/11 07:25:26;;;;;;;23.13;9.80;;;;;;;9.28;100.00;102757.81;5219770;28;20017;-74
2021/10/11 07:27:58;;;;;;;21.77;11.80;;;;;;;9.29;100.00;102752.38;5219348;28;20028;-73
2021/10/11 07:30:29;;;;;;;26.85;11.93;;;;;;;9.27;100.00;102759.66;5219415;28;20043;-74
2021/10/11 07:33:01;;;;;;;19.05;7.75;;;;;;;9.31;100.00;102765.66;5218936;28;20037;-73
2021/10/11 07:35:31;;;;;;;28.50;8.20;;;;;;;9.31;100.00;102763.81;5219171;28;20033;-73
2021/10/11 07:38:02;;;;;;;20.17;6.88;;;;;;;9.34;100.00;102768.13;5219273;28;20078;-74
2021/10/11 07:40:32;;;;;;;19.40;6.80;;;;;;;9.35;100.00;102783.22;5218615;28;20025;-74
2021/10/11 07:43:03;;;;;;;22.25;7.65;;;;;;;9.37;100.00;102777.75;5219494;28;20082;-73
2021/10/11 07:45:34;;;;;;;18.02;7.50;;;;;;;9.38;100.00;102774.94;5218754;28;20131;-73
2021/10/11 07:48:04;;;;;;;22.00;6.90;;;;;;;9.39;100.00;102768.63;5219439;28;20294;-72
2021/10/11 07:50:35;;;;;;;21.48;6.88;;;;;;;9.46;100.00;102782.44;5218771;28;20124;-75
2021/10/11 07:53:05;;;;;;;16.70;6.53;;;;;;;9.53;100.00;102776.50;5219117;28;20033;-73
2021/10/11 07:55:36;;;;;;;14.55;6.63;;;;;;;9.64;100.00;102775.72;5218251;28;20100;-73
2021/10/11 07:58:06;;;;;;;19.92;7.03;;;;;;;9.75;100.00;102786.50;5219800;28;20133;-72
2021/10/11 08:00:37;;;;;;;18.60;6.75;;;;;;;9.88;100.00;102780.22;5218858;28;20021;-74
2021/10/11 08:03:08;;;;;;;20.45;5.80;;;;;;;10.04;100.00;102787.03;5219322;28;20391;-72
2021/10/11 08:05:38;;;;;;;26.08;9.68;;;;;;;10.16;100.00;102787.91;5217565;28;20562;-72
2021/10/11 08:08:09;;;;;;;21.02;7.65;;;;;;;10.34;100.00;102791.03;5218970;28;20025;-72
2021/10/11 08:10:41;;;;;;;21.90;7.18;;;;;;;10.40;100.00;102793.28;5219418;28;20356;-73
2021/10/11 08:13:11;;;;;;;23.65;8.32;;;;;;;10.55;100.00;102797.44;5219205;28;20020;-72
2021/10/11 08:15:41;;;;;;;17.42;5.95;;;;;;;10.65;100.00;102799.44;5218552;28;20032;-74
2021/10/11 08:18:13;;;;;;;23.02;6.68;;;;;;;10.72;100.00;102798.81;5219046;28;20021;-74
2021/10/11 08:20:46;;;;;;;21.90;7.88;;;;;;;10.78;100.00;102795.66;5218817;28;20033;-74
2021/10/11 08:23:16;;;;;;;18.17;6.10;;;;;;;10.84;100.00;102795.19;5219164;28;20021;-74
2021/10/11 08:25:47;;;;;;;13.57;7.55;;;;;;;10.84;100.00;102799.66;5219129;28;20051;-72
2021/10/11 08:28:18;;;;;;;18.45;6.18;;;;;;;10.96;100.00;102804.09;5218606;28;20021;-72
2021/10/11 08:30:48;;;;;;;14.13;5.93;;;;;;;11.04;100.00;102806.16;5218881;28;20390;-74
2021/10/11 08:33:19;;;;;;;43.53;7.45;;;;;;;11.15;100.00;102800.81;5219460;28;20051;-73
2021/10/11 08:35:49;;;;;;;18.98;5.20;;;;;;;11.20;100.00;102803.97;5218713;28;20307;-72
2021/10/11 08:38:20;;;;;;;17.73;5.60;;;;;;;11.32;100.00;102799.44;5219303;28;20060;-72
2021/10/11 08:40:50;;;;;;;16.92;5.40;;;;;;;11.41;100.00;102798.72;5218225;28;20017;-73
2021/10/11 08:43:22;;;;;;;19.48;5.30;;;;;;;11.47;100.00;102800.88;5219311;28;20040;-72
2021/10/11 08:45:52;;;;;;;23.17;6.38;;;;;;;11.53;100.00;102792.31;5221389;28;20029;-73
2021/10/11 08:48:23;;;;;;;19.85;8.57;;;;;;;11.58;100.00;102802.69;5222287;28;20033;-72
2021/10/11 08:50:53;;;;;;;19.33;5.20;;;;;;;11.61;100.00;102807.84;5222707;28;20029;-72
2021/10/11 08:53:24;;;;;;;20.05;5.50;;;;;;;11.63;100.00;102812.09;5222759;28;20040;-72
2021/10/11 08:55:55;;;;;;;13.15;5.00;;;;;;;11.66;100.00;102808.31;5222821;28;20245;-72
2021/10/11 08:58:25;;;;;;;21.75;6.20;;;;;;;11.67;100.00;102801.94;5222720;28;20525;-73
2021/10/11 09:01:05;;;;;;;12.18;5.28;;;;;;;11.70;100.00;102807.09;5222315;28;20057;-72
2021/10/11 09:03:36;;;;;;;15.30;5.60;;;;;;;11.71;100.00;102805.25;5221971;28;20482;-73
2021/10/11 09:06:09;;;;;;;16.50;5.13;;;;;;;11.68;100.00;102806.34;5222245;28;20064;-74
2021/10/11 09:08:40;;;;;;;16.70;5.68;;;;;;;11.72;100.00;102801.56;5222273;28;20025;-73
2021/10/11 09:11:13;;;;;;;18.83;5.72;;;;;;;11.74;100.00;102805.84;5222192;28;20074;-73
2021/10/11 09:13:51;;;;;;;14.18;5.65;;;;;;;11.81;100.00;102795.44;5222747;28;20056;-73
2021/10/11 09:16:35;;;;;;;28.02;12.70;;;;;;;11.88;100.00;102805.59;5221706;28;20086;-72
2021/10/11 09:19:18;;;;;;;13.15;5.32;;;;;;;11.96;100.00;102804.97;5222163;28;20021;-72
2021/10/11 09:21:49;;;;;;;21.13;6.10;;;;;;;12.10;100.00;102804.66;5210495;28;20490;-73
2021/10/11 09:24:21;;;;;;;21.70;5.03;;;;;;;12.17;100.00;102803.16;5222142;28;20025;-72
2021/10/11 09:26:56;;;;;;;13.77;4.75;;;;;;;12.30;100.00;102807.50;5222284;28;20098;-72
2021/10/11 09:29:35;;;;;;;14.45;4.30;;;;;;;12.42;100.00;102798.38;5222192;28;20075;-72
2021/10/11 09:32:08;;;;;;;12.27;4.38;;;;;;;12.48;100.00;102800.56;5222645;28;20021;-73
2021/10/11 09:34:39;;;;;;;17.98;4.57;;;;;;;12.58;100.00;102801.47;5221816;28;20036;-72
2021/10/11 09:37:13;;;;;;;23.35;5.78;;;;;;;12.72;100.00;102800.28;5222430;28;20522;-72
2021/10/11 09:39:43;;;;;;;16.30;4.70;;;;;;;12.86;100.00;102805.34;5222021;28;20482;-73
2021/10/11 09:42:16;;;;;;;16.27;4.22;;;;;;;12.91;100.00;102803.09;5222242;28;20111;-72
2021/10/11 09:44:54;;;;;;;13.10;4.80;;;;;;;13.12;100.00;102810.28;5221847;28;20036;-72
2021/10/11 09:47:29;;;;;;;17.52;4.05;;;;;;;13.16;100.00;102804.47;5221863;28;20100;-73
2021/10/11 09:50:02;;;;;;;11.75;4.10;;;;;;;13.38;100.00;102805.28;5221377;28;20013;-73
2021/10/11 09:52:32;;;;;;;16.70;5.22;;;;;;;13.51;100.00;102808.59;5221877;28;20025;-72
2021/10/11 09:55:05;;;;;;;23.05;4.63;;;;;;;13.58;100.00;102806.19;5221130;28;20024;-72
2021/10/11 09:57:36;;;;;;;15.57;3.75;;;;;;;13.76;100.00;102804.53;5222089;28;20402;-72
2021/10/11 10:00:09;;;;;;;19.60;6.53;;;;;;;13.98;100.00;102801.56;5220724;28;20036;-72
2021/10/11 10:02:42;;;;;;;21.73;4.85;;;;;;;14.02;100.00;102798.59;5221929;28;20417;-72
2021/10/11 10:05:17;;;;;;;21.60;4.57;;;;;;;14.02;100.00;102804.84;5220183;28;20017;-72
2021/10/11 10:07:51;;;;;;;20.48;7.18;;;;;;;14.06;100.00;102810.81;5221919;28;20508;-71
2021/10/11 10:10:24;;;;;;;24.73;5.35;;;;;;;14.11;100.00;102805.84;5223875;28;20035;-72
2021/10/11 10:12:55;;;;;;;20.00;3.55;;;;;;;14.52;100.00;102806.56;5222066;28;20028;-71
2021/10/11 10:15:35;;;;;;;17.73;3.78;;;;;;;14.45;100.00;102811.63;5221740;28;20398;-71
2021/10/11 10:18:09;;;;;;;18.55;4.32;;;;;;;14.35;100.00;102808.09;5221811;28;20379;-72
2021/10/11 10:20:56;;;;;;;15.88;4.82;;;;;;;14.28;100.00;102806.97;5220995;28;20318;-72
2021/10/11 10:23:29;;;;;;;14.25;4.60;;;;;;;14.09;100.00;102797.88;5209641;28;20154;-71
2021/10/11 10:26:03;;;;;;;15.85;4.90;;;;;;;14.19;100.00;102811.38;5221463;28;20501;-72
2021/10/11 10:28:46;;;;;;;13.50;4.40;;;;;;;14.40;100.00;102805.81;5221129;28;20029;-72
2021/10/11 10:31:30;;;;;;;19.73;4.82;;;;;;;14.53;100.00;102806.41;5220711;28;20112;-72
2021/10/11 10:34:12;;;;;;;15.55;3.70;;;;;;;14.71;100.00;102801.13;5221350;28;20025;-71
2021/10/11 10:36:44;;;;;;;19.52;4.65;;;;;;;14.93;100.00;102803.47;5221113;28;20048;-72
2021/10/11 10:39:15;;;;;;;22.73;4.82;;;;;;;14.99;100.00;102808.28;5219696;28;20024;-72
2021/10/11 10:41:55;;;;;;;15.45;4.22;;;;;;;14.97;100.00;102796.78;5220373;28;20498;-72
2021/10/11 10:44:26;;;;;;;20.02;4.63;;;;;;;15.08;100.00;102792.19;5221080;28;20493;-72
2021/10/11 10:47:00;;;;;;;22.02;4.60;;;;;;;15.20;100.00;102802.63;5220588;28;20020;-72
2021/10/11 10:49:34;;;;;;;14.18;4.38;;;;;;;15.25;100.00;102800.34;5220393;28;20031;-72
2021/10/11 10:52:12;;;;;;;17.85;4.13;;;;;;;15.48;100.00;102805.34;5221045;28;20075;-72
2021/10/11 10:54:46;;;;;;;18.10;5.10;;;;;;;15.50;100.00;102803.34;5220563;28;20083;-71
2021/10/11 10:57:21;;;;;;;16.30;4.37;;;;;;;15.41;100.00;102794.31;5221941;28;20049;-73
2021/10/11 10:59:54;;;;;;;12.23;4.03;;;;;;;15.44;100.00;102793.13;5221224;28;20066;-72
2021/10/11 11:02:28;;;;;;;18.85;4.57;;;;;;;15.47;100.00;102784.72;5221192;28;20511;-72
2021/10/11 11:05:03;;;;;;;19.35;4.55;;;;;;;15.50;100.00;102785.25;5221661;28;20039;-72
2021/10/11 11:07:37;;;;;;;13.90;4.05;;;;;;;15.58;100.00;102781.81;5221558;28;20028;-72
2021/10/11 11:10:16;;;;;;;17.75;4.32;;;;;;;15.69;100.00;102781.63;5221553;28;20031;-72
2021/10/11 11:12:53;;;;;;;15.77;3.75;;;;;;;15.73;100.00;102774.91;5221478;28;20509;-72
2021/10/11 11:15:28;;;;;;;11.20;4.50;;;;;;;15.79;100.00;102774.28;5222400;28;20092;-72
2021/10/11 11:18:02;;;;;;;15.45;3.97;;;;;;;16.00;100.00;102776.66;5222190;28;20032;-72
2021/10/11 11:20:35;;;;;;;15.80;4.37;;;;;;;16.24;100.00;102773.31;5221438;28;20024;-72
2021/10/11 11:23:09;;;;;;;33.40;5.15;;;;;;;16.33;100.00;102778.81;5221713;28;20569;-72
2021/10/11 11:25:42;;;;;;;43.58;21.45;;;;;;;16.29;100.00;102773.72;5221247;28;20029;-72
2021/10/11 11:28:18;;;;;;;19.67;8.90;;;;;;;16.42;100.00;102773.31;5221470;28;20025;-72
2021/10/11 11:30:50;;;;;;;17.27;5.00;;;;;;;16.28;100.00;102772.00;5221047;28;20044;-72
2021/10/11 11:33:22;;;;;;;17.05;6.68;;;;;;;16.23;100.00;102774.34;5221885;28;20309;-73